sensor_id;sensor_type;location;lat;lon;timestamp;pressure;altitude;pressure_sealevel;temperature;humidity
65131;BME280;51709;54.912;8.316;2024-01-11T00:02:28;103293.97;;;2.95;80.61
65131;BME280;51709;54.912;8.316;2024-01-11T00:07:49;103288.72;;;2.92;80.60
65131;BME280;51709;54.912;8.316;2024-01-11T00:13:10;103286.03;;;2.92;80.52
65131;BME280;51709;54.912;8.316;2024-01-11T00:18:30;103282.38;;;2.95;80.60
65131;BME280;51709;54.912;8.316;2024-01-11T00:23:51;103270.88;;;2.91;80.88
65131;BME280;51709;54.912;8.316;2024-01-11T00:29:12;103279.94;;;2.87;81.11
65131;BME280;51709;54.912;8.316;2024-01-11T00:34:33;103263.13;;;2.82;81.13
65131;BME280;51709;54.912;8.316;2024-01-11T00:39:53;103270.28;;;2.82;81.13
65131;BME280;51709;54.912;8.316;2024-01-11T00:45:13;103271.16;;;2.82;81.10
65131;BME280;51709;54.912;8.316;2024-01-11T00:50:34;103253.28;;;2.81;81.05
65131;BME280;51709;54.912;8.316;2024-01-11T00:55:55;103247.91;;;2.81;81.35
65131;BME280;51709;54.912;8.316;2024-01-11T01:01:15;103242.44;;;2.84;81.30
65131;BME280;51709;54.912;8.316;2024-01-11T01:06:36;103251.31;;;2.86;81.05
65131;BME280;51709;54.912;8.316;2024-01-11T01:11:57;103253.94;;;2.88;81.15
65131;BME280;51709;54.912;8.316;2024-01-11T01:17:17;103242.25;;;2.90;81.20
65131;BME280;51709;54.912;8.316;2024-01-11T01:22:38;103225.19;;;2.93;81.12
65131;BME280;51709;54.912;8.316;2024-01-11T01:27:58;103226.03;;;2.93;81.25
65131;BME280;51709;54.912;8.316;2024-01-11T01:33:21;103240.28;;;2.95;81.35
65131;BME280;51709;54.912;8.316;2024-01-11T01:38:41;103240.19;;;2.98;81.30
65131;BME280;51709;54.912;8.316;2024-01-11T01:44:02;103228.47;;;3.01;81.24
65131;BME280;51709;54.912;8.316;2024-01-11T01:49:23;103222.13;;;3.03;81.28
65131;BME280;51709;54.912;8.316;2024-01-11T01:54:44;103219.38;;;3.05;81.38
65131;BME280;51709;54.912;8.316;2024-01-11T02:00:05;103207.69;;;3.07;81.56
65131;BME280;51709;54.912;8.316;2024-01-11T02:05:34;103226.47;;;3.07;81.43
65131;BME280;51709;54.912;8.316;2024-01-11T02:10:56;103220.16;;;3.08;81.65
65131;BME280;51709;54.912;8.316;2024-01-11T02:16:17;103238.84;;;3.11;81.56
65131;BME280;51709;54.912;8.316;2024-01-11T02:21:37;103246.81;;;3.14;81.58
65131;BME280;51709;54.912;8.316;2024-01-11T02:32:22;103243.25;;;3.14;81.78
65131;BME280;51709;54.912;8.316;2024-01-11T02:37:43;103239.47;;;3.19;81.59
65131;BME280;51709;54.912;8.316;2024-01-11T02:43:09;103235.63;;;3.27;81.72
65131;BME280;51709;54.912;8.316;2024-01-11T02:48:30;103226.38;;;3.35;81.70
65131;BME280;51709;54.912;8.316;2024-01-11T02:53:54;103231.50;;;3.43;81.73
65131;BME280;51709;54.912;8.316;2024-01-11T02:59:14;103224.25;;;3.45;81.64
65131;BME280;51709;54.912;8.316;2024-01-11T03:04:35;103225.03;;;3.48;81.16
65131;BME280;51709;54.912;8.316;2024-01-11T03:09:56;103232.06;;;3.52;80.95
65131;BME280;51709;54.912;8.316;2024-01-11T03:15:17;103216.69;;;3.56;81.24
65131;BME280;51709;54.912;8.316;2024-01-11T03:20:37;103222.78;;;3.61;81.13
65131;BME280;51709;54.912;8.316;2024-01-11T03:25:58;103214.31;;;3.71;81.56
65131;BME280;51709;54.912;8.316;2024-01-11T03:31:19;103205.97;;;3.79;81.66
65131;BME280;51709;54.912;8.316;2024-01-11T03:36:40;103189.50;;;3.88;81.72
65131;BME280;51709;54.912;8.316;2024-01-11T03:42:00;103177.56;;;3.95;81.69
65131;BME280;51709;54.912;8.316;2024-01-11T03:47:21;103153.00;;;4.04;81.82
65131;BME280;51709;54.912;8.316;2024-01-11T03:52:42;103140.94;;;4.14;81.77
65131;BME280;51709;54.912;8.316;2024-01-11T03:58:03;103127.94;;;4.25;81.80
65131;BME280;51709;54.912;8.316;2024-01-11T04:03:23;103130.34;;;4.33;81.69
65131;BME280;51709;54.912;8.316;2024-01-11T04:08:44;103137.16;;;4.41;81.49
65131;BME280;51709;54.912;8.316;2024-01-11T04:14:06;103142.22;;;4.49;81.33
65131;BME280;51709;54.912;8.316;2024-01-11T04:19:27;103148.09;;;4.58;81.39
65131;BME280;51709;54.912;8.316;2024-01-11T04:24:48;103142.19;;;4.70;81.47
65131;BME280;51709;54.912;8.316;2024-01-11T04:30:08;103139.94;;;4.81;81.98
65131;BME280;51709;54.912;8.316;2024-01-11T04:35:29;103133.50;;;4.85;81.46
65131;BME280;51709;54.912;8.316;2024-01-11T04:40:50;103112.75;;;4.87;81.52
65131;BME280;51709;54.912;8.316;2024-01-11T04:46:17;103119.06;;;4.86;81.25
65131;BME280;51709;54.912;8.316;2024-01-11T04:51:38;103118.94;;;4.89;81.33
65131;BME280;51709;54.912;8.316;2024-01-11T04:56:58;103124.28;;;4.91;81.12
65131;BME280;51709;54.912;8.316;2024-01-11T05:02:22;103134.91;;;4.94;81.35
65131;BME280;51709;54.912;8.316;2024-01-11T05:07:43;103123.13;;;4.96;81.16
65131;BME280;51709;54.912;8.316;2024-01-11T05:13:03;103115.84;;;4.98;81.06
65131;BME280;51709;54.912;8.316;2024-01-11T05:18:24;103143.59;;;5.00;81.34
65131;BME280;51709;54.912;8.316;2024-01-11T05:23:45;103137.28;;;5.01;81.18
65131;BME280;51709;54.912;8.316;2024-01-11T05:29:06;103122.84;;;5.02;81.35
65131;BME280;51709;54.912;8.316;2024-01-11T05:34:26;103114.75;;;5.02;81.45
65131;BME280;51709;54.912;8.316;2024-01-11T05:39:47;103080.63;;;5.03;81.22
65131;BME280;51709;54.912;8.316;2024-01-11T05:45:08;103085.13;;;5.02;81.33
65131;BME280;51709;54.912;8.316;2024-01-11T05:50:28;103071.75;;;5.01;81.32
65131;BME280;51709;54.912;8.316;2024-01-11T05:55:49;103072.63;;;5.01;81.47
65131;BME280;51709;54.912;8.316;2024-01-11T06:01:12;103089.63;;;5.02;81.43
65131;BME280;51709;54.912;8.316;2024-01-11T06:06:52;103093.44;;;4.98;81.66
65131;BME280;51709;54.912;8.316;2024-01-11T06:12:12;103091.81;;;4.94;81.62
65131;BME280;51709;54.912;8.316;2024-01-11T06:17:34;103102.59;;;4.94;81.55
65131;BME280;51709;54.912;8.316;2024-01-11T06:22:55;103087.16;;;4.97;81.74
65131;BME280;51709;54.912;8.316;2024-01-11T06:28:15;103083.41;;;5.01;81.79
65131;BME280;51709;54.912;8.316;2024-01-11T06:33:36;103086.94;;;5.02;81.75
65131;BME280;51709;54.912;8.316;2024-01-11T06:38:57;103072.63;;;5.01;81.65
65131;BME280;51709;54.912;8.316;2024-01-11T06:44:19;103075.31;;;5.01;81.59
65131;BME280;51709;54.912;8.316;2024-01-11T06:49:40;103072.56;;;5.03;81.75
65131;BME280;51709;54.912;8.316;2024-01-11T06:55:02;103078.00;;;5.01;81.57
65131;BME280;51709;54.912;8.316;2024-01-11T07:00:25;103066.16;;;5.05;81.91
65131;BME280;51709;54.912;8.316;2024-01-11T07:05:46;103077.53;;;5.12;81.95
65131;BME280;51709;54.912;8.316;2024-01-11T07:11:07;103078.25;;;5.15;81.76
65131;BME280;51709;54.912;8.316;2024-01-11T07:16:28;103077.31;;;5.16;81.75
65131;BME280;51709;54.912;8.316;2024-01-11T07:21:48;103095.09;;;5.20;81.58
65131;BME280;51709;54.912;8.316;2024-01-11T07:27:10;103096.88;;;5.21;81.76
65131;BME280;51709;54.912;8.316;2024-01-11T07:32:30;103087.81;;;5.22;81.74
65131;BME280;51709;54.912;8.316;2024-01-11T07:37:51;103076.09;;;5.23;81.81
65131;BME280;51709;54.912;8.316;2024-01-11T07:43:11;103089.44;;;5.26;81.88
65131;BME280;51709;54.912;8.316;2024-01-11T07:48:34;103103.44;;;5.34;81.91
65131;BME280;51709;54.912;8.316;2024-01-11T07:53:55;103109.69;;;5.35;81.83
65131;BME280;51709;54.912;8.316;2024-01-11T07:59:17;103128.38;;;5.40;81.90
65131;BME280;51709;54.912;8.316;2024-01-11T08:04:38;103123.72;;;5.43;81.83
65131;BME280;51709;54.912;8.316;2024-01-11T08:09:59;103134.22;;;5.49;81.57
65131;BME280;51709;54.912;8.316;2024-01-11T08:15:19;103126.84;;;5.53;81.77
65131;BME280;51709;54.912;8.316;2024-01-11T08:20:40;103130.22;;;5.58;81.67
65131;BME280;51709;54.912;8.316;2024-01-11T08:26:00;103114.84;;;5.60;81.68
65131;BME280;51709;54.912;8.316;2024-01-11T08:31:21;103113.91;;;5.61;81.70
65131;BME280;51709;54.912;8.316;2024-01-11T08:36:42;103104.78;;;5.63;81.32
65131;BME280;51709;54.912;8.316;2024-01-11T08:42:02;103094.72;;;5.67;81.34
65131;BME280;51709;54.912;8.316;2024-01-11T08:47:24;103099.50;;;5.80;81.14
65131;BME280;51709;54.912;8.316;2024-01-11T08:52:46;103116.44;;;5.84;81.28
65131;BME280;51709;54.912;8.316;2024-01-11T08:58:07;103111.84;;;5.86;81.09
65131;BME280;51709;54.912;8.316;2024-01-11T09:03:28;103103.25;;;5.96;81.00
65131;BME280;51709;54.912;8.316;2024-01-11T09:08:48;103104.84;;;6.00;81.11
65131;BME280;51709;54.912;8.316;2024-01-11T09:14:09;103064.03;;;6.08;80.74
65131;BME280;51709;54.912;8.316;2024-01-11T09:19:34;103081.94;;;6.09;80.84
65131;BME280;51709;54.912;8.316;2024-01-11T09:24:55;103097.41;;;6.24;80.66
65131;BME280;51709;54.912;8.316;2024-01-11T09:30:15;103106.50;;;6.40;80.61
65131;BME280;51709;54.912;8.316;2024-01-11T09:35:36;103125.13;;;6.63;80.02
65131;BME280;51709;54.912;8.316;2024-01-11T09:41:10;103122.88;;;6.54;80.15
65131;BME280;51709;54.912;8.316;2024-01-11T09:46:34;103122.41;;;6.80;79.90
65131;BME280;51709;54.912;8.316;2024-01-11T09:51:55;103131.81;;;6.90;79.74
65131;BME280;51709;54.912;8.316;2024-01-11T09:57:24;103138.66;;;6.97;79.53
65131;BME280;51709;54.912;8.316;2024-01-11T10:02:46;103144.59;;;7.04;79.36
65131;BME280;51709;54.912;8.316;2024-01-11T10:08:08;103163.13;;;7.11;79.38
65131;BME280;51709;54.912;8.316;2024-01-11T10:13:30;103147.88;;;7.27;79.13
65131;BME280;51709;54.912;8.316;2024-01-11T10:18:54;103144.38;;;7.25;78.88
65131;BME280;51709;54.912;8.316;2024-01-11T10:24:19;103139.44;;;7.33;78.83
65131;BME280;51709;54.912;8.316;2024-01-11T10:29:41;103148.13;;;7.56;78.58
65131;BME280;51709;54.912;8.316;2024-01-11T10:35:02;103139.78;;;7.93;78.00
65131;BME280;51709;54.912;8.316;2024-01-11T10:40:26;103132.06;;;9.38;75.87
65131;BME280;51709;54.912;8.316;2024-01-11T10:45:48;103133.16;;;10.61;74.62
65131;BME280;51709;54.912;8.316;2024-01-11T10:51:09;103119.56;;;11.00;75.02
65131;BME280;51709;54.912;8.316;2024-01-11T10:56:33;103128.69;;;11.63;75.13
65131;BME280;51709;54.912;8.316;2024-01-11T11:01:55;103145.16;;;12.72;73.66
65131;BME280;51709;54.912;8.316;2024-01-11T11:07:18;103134.91;;;13.44;72.35
65131;BME280;51709;54.912;8.316;2024-01-11T11:12:40;103144.91;;;14.45;70.53
65131;BME280;51709;54.912;8.316;2024-01-11T11:18:01;103139.34;;;14.89;70.12
65131;BME280;51709;54.912;8.316;2024-01-11T11:23:22;103154.06;;;15.40;69.71
65131;BME280;51709;54.912;8.316;2024-01-11T11:28:43;103130.31;;;17.47;68.03
65131;BME280;51709;54.912;8.316;2024-01-11T11:34:05;103127.78;;;19.26;66.61
65131;BME280;51709;54.912;8.316;2024-01-11T11:39:26;103136.00;;;20.13;65.90
65131;BME280;51709;54.912;8.316;2024-01-11T11:44:49;103114.22;;;21.57;62.96
65131;BME280;51709;54.912;8.316;2024-01-11T11:50:11;103125.25;;;22.44;61.11
65131;BME280;51709;54.912;8.316;2024-01-11T11:55:34;103130.34;;;22.25;60.69
65131;BME280;51709;54.912;8.316;2024-01-11T12:00:57;103133.69;;;22.59;60.60
65131;BME280;51709;54.912;8.316;2024-01-11T12:06:20;103129.69;;;23.15;59.54
65131;BME280;51709;54.912;8.316;2024-01-11T12:11:44;103134.31;;;23.45;59.19
65131;BME280;51709;54.912;8.316;2024-01-11T12:17:14;103152.19;;;23.20;59.09
65131;BME280;51709;54.912;8.316;2024-01-11T12:22:35;103151.97;;;22.29;60.16
65131;BME280;51709;54.912;8.316;2024-01-11T12:27:56;103142.34;;;22.56;59.49
65131;BME280;51709;54.912;8.316;2024-01-11T12:33:17;103147.16;;;22.15;59.38
65131;BME280;51709;54.912;8.316;2024-01-11T12:38:38;103143.97;;;20.99;60.87
65131;BME280;51709;54.912;8.316;2024-01-11T12:44:09;103135.28;;;19.59;63.45
65131;BME280;51709;54.912;8.316;2024-01-11T12:49:30;103136.25;;;19.50;62.98
65131;BME280;51709;54.912;8.316;2024-01-11T12:54:55;103129.47;;;18.57;63.31
65131;BME280;51709;54.912;8.316;2024-01-11T13:00:17;103129.00;;;17.13;65.86
65131;BME280;51709;54.912;8.316;2024-01-11T13:05:38;103119.13;;;18.32;63.26
65131;BME280;51709;54.912;8.316;2024-01-11T13:10:59;103117.41;;;18.31;64.32
65131;BME280;51709;54.912;8.316;2024-01-11T13:16:24;103099.09;;;18.49;64.50
65131;BME280;51709;54.912;8.316;2024-01-11T13:21:45;103089.63;;;17.41;66.91
65131;BME280;51709;54.912;8.316;2024-01-11T13:27:05;103089.97;;;15.83;68.29
65131;BME280;51709;54.912;8.316;2024-01-11T13:32:26;103091.50;;;13.97;71.14
65131;BME280;51709;54.912;8.316;2024-01-11T13:37:47;103108.69;;;12.96;73.07
65131;BME280;51709;54.912;8.316;2024-01-11T13:43:09;103098.53;;;12.27;73.90
65131;BME280;51709;54.912;8.316;2024-01-11T13:48:33;103108.31;;;11.94;74.38
65131;BME280;51709;54.912;8.316;2024-01-11T13:53:54;103114.63;;;11.31;75.47
65131;BME280;51709;54.912;8.316;2024-01-11T13:59:14;103114.88;;;10.89;76.09
65131;BME280;51709;54.912;8.316;2024-01-11T14:04:35;103129.56;;;10.60;76.49
65131;BME280;51709;54.912;8.316;2024-01-11T14:09:56;103134.25;;;9.89;77.98
65131;BME280;51709;54.912;8.316;2024-01-11T14:15:16;103132.47;;;9.46;79.27
65131;BME280;51709;54.912;8.316;2024-01-11T14:20:37;103146.19;;;9.29;79.35
65131;BME280;51709;54.912;8.316;2024-01-11T14:25:58;103150.25;;;8.92;79.76
65131;BME280;51709;54.912;8.316;2024-01-11T14:31:19;103168.03;;;8.51;80.39
65131;BME280;51709;54.912;8.316;2024-01-11T14:36:39;103159.44;;;8.12;81.35
65131;BME280;51709;54.912;8.316;2024-01-11T14:42:00;103155.91;;;7.79;81.68
65131;BME280;51709;54.912;8.316;2024-01-11T14:47:21;103159.53;;;7.45;82.03
65131;BME280;51709;54.912;8.316;2024-01-11T14:52:42;103172.94;;;7.14;82.38
65131;BME280;51709;54.912;8.316;2024-01-11T14:58:03;103179.94;;;6.82;82.74
65131;BME280;51709;54.912;8.316;2024-01-11T15:03:25;103183.00;;;6.58;83.29
65131;BME280;51709;54.912;8.316;2024-01-11T15:08:46;103182.53;;;6.31;83.31
65131;BME280;51709;54.912;8.316;2024-01-11T15:14:08;103188.16;;;6.08;83.64
65131;BME280;51709;54.912;8.316;2024-01-11T15:19:32;103187.16;;;5.90;83.63
65131;BME280;51709;54.912;8.316;2024-01-11T15:24:53;103188.91;;;5.71;84.08
65131;BME280;51709;54.912;8.316;2024-01-11T15:30:14;103182.63;;;5.52;84.14
65131;BME280;51709;54.912;8.316;2024-01-11T15:35:35;103186.31;;;5.29;84.15
65131;BME280;51709;54.912;8.316;2024-01-11T15:40:55;103190.38;;;5.19;84.03
65131;BME280;51709;54.912;8.316;2024-01-11T15:46:17;103188.88;;;5.12;84.12
65131;BME280;51709;54.912;8.316;2024-01-11T15:51:37;103192.88;;;5.02;84.20
65131;BME280;51709;54.912;8.316;2024-01-11T15:56:58;103209.38;;;4.95;84.23
65131;BME280;51709;54.912;8.316;2024-01-11T16:02:18;103206.06;;;4.88;84.09
65131;BME280;51709;54.912;8.316;2024-01-11T16:07:41;103212.78;;;4.78;83.98
65131;BME280;51709;54.912;8.316;2024-01-11T16:13:01;103208.59;;;4.71;83.84
65131;BME280;51709;54.912;8.316;2024-01-11T16:18:22;103202.50;;;4.66;83.97
65131;BME280;51709;54.912;8.316;2024-01-11T16:23:45;103208.31;;;4.56;83.92
65131;BME280;51709;54.912;8.316;2024-01-11T16:29:06;103213.31;;;4.43;83.76
65131;BME280;51709;54.912;8.316;2024-01-11T16:34:27;103202.91;;;4.34;83.51
65131;BME280;51709;54.912;8.316;2024-01-11T16:39:48;103195.09;;;4.28;83.64
65131;BME280;51709;54.912;8.316;2024-01-11T16:45:09;103204.22;;;4.24;83.72
65131;BME280;51709;54.912;8.316;2024-01-11T16:50:30;103209.00;;;4.16;83.83
65131;BME280;51709;54.912;8.316;2024-01-11T16:55:51;103229.13;;;4.06;83.84
65131;BME280;51709;54.912;8.316;2024-01-11T17:01:12;103223.88;;;4.03;83.88
65131;BME280;51709;54.912;8.316;2024-01-11T17:06:34;103233.00;;;3.99;83.45
65131;BME280;51709;54.912;8.316;2024-01-11T17:11:55;103226.19;;;3.89;83.50
65131;BME280;51709;54.912;8.316;2024-01-11T17:17:16;103226.53;;;3.80;83.34
65131;BME280;51709;54.912;8.316;2024-01-11T17:22:37;103235.66;;;3.76;82.96
65131;BME280;51709;54.912;8.316;2024-01-11T17:27:57;103238.56;;;3.70;82.85
65131;BME280;51709;54.912;8.316;2024-01-11T17:33:18;103249.66;;;3.61;82.76
65131;BME280;51709;54.912;8.316;2024-01-11T17:38:43;103248.81;;;3.59;82.98
65131;BME280;51709;54.912;8.316;2024-01-11T17:44:04;103256.81;;;3.60;82.92
65131;BME280;51709;54.912;8.316;2024-01-11T17:49:24;103224.56;;;3.60;82.58
65131;BME280;51709;54.912;8.316;2024-01-11T17:54:46;103236.22;;;3.61;82.67
65131;BME280;51709;54.912;8.316;2024-01-11T18:00:06;103215.94;;;3.52;82.56
65131;BME280;51709;54.912;8.316;2024-01-11T18:05:28;103227.97;;;3.41;82.58
65131;BME280;51709;54.912;8.316;2024-01-11T18:10:49;103217.59;;;3.30;82.50
65131;BME280;51709;54.912;8.316;2024-01-11T18:16:09;103221.19;;;3.31;82.55
65131;BME280;51709;54.912;8.316;2024-01-11T18:21:30;103207.81;;;3.29;82.23
65131;BME280;51709;54.912;8.316;2024-01-11T18:26:51;103209.72;;;3.26;82.26
65131;BME280;51709;54.912;8.316;2024-01-11T18:32:11;103223.19;;;3.24;82.25
65131;BME280;51709;54.912;8.316;2024-01-11T18:37:32;103234.03;;;3.21;82.12
65131;BME280;51709;54.912;8.316;2024-01-11T18:42:53;103244.84;;;3.19;81.72
65131;BME280;51709;54.912;8.316;2024-01-11T18:48:14;103251.09;;;3.20;81.83
65131;BME280;51709;54.912;8.316;2024-01-11T18:53:37;103260.78;;;3.24;81.84
65131;BME280;51709;54.912;8.316;2024-01-11T18:59:02;103259.03;;;3.23;81.71
65131;BME280;51709;54.912;8.316;2024-01-11T19:04:22;103254.59;;;3.22;81.49
65131;BME280;51709;54.912;8.316;2024-01-11T19:09:43;103257.25;;;3.24;81.31
65131;BME280;51709;54.912;8.316;2024-01-11T19:15:04;103242.88;;;3.25;81.34
65131;BME280;51709;54.912;8.316;2024-01-11T19:20:25;103240.19;;;3.25;81.40
65131;BME280;51709;54.912;8.316;2024-01-11T19:25:46;103236.72;;;3.21;81.39
65131;BME280;51709;54.912;8.316;2024-01-11T19:31:07;103243.97;;;3.19;81.02
65131;BME280;51709;54.912;8.316;2024-01-11T19:36:27;103227.19;;;3.12;81.19
65131;BME280;51709;54.912;8.316;2024-01-11T19:41:48;103240.69;;;3.09;81.49
65131;BME280;51709;54.912;8.316;2024-01-11T19:47:09;103247.19;;;3.04;81.18
65131;BME280;51709;54.912;8.316;2024-01-11T19:52:30;103243.75;;;2.99;81.18
65131;BME280;51709;54.912;8.316;2024-01-11T19:57:51;103248.44;;;2.92;81.20
65131;BME280;51709;54.912;8.316;2024-01-11T20:03:13;103234.38;;;2.84;81.01
65131;BME280;51709;54.912;8.316;2024-01-11T20:08:35;103244.31;;;2.82;80.99
65131;BME280;51709;54.912;8.316;2024-01-11T20:13:56;103241.59;;;2.84;81.18
65131;BME280;51709;54.912;8.316;2024-01-11T20:19:16;103250.66;;;2.80;80.96
65131;BME280;51709;54.912;8.316;2024-01-11T20:24:37;103255.25;;;2.76;81.01
65131;BME280;51709;54.912;8.316;2024-01-11T20:29:58;103253.41;;;2.78;80.74
65131;BME280;51709;54.912;8.316;2024-01-11T20:35:18;103240.81;;;2.79;80.93
65131;BME280;51709;54.912;8.316;2024-01-11T20:40:38;103248.84;;;2.80;80.83
65131;BME280;51709;54.912;8.316;2024-01-11T20:45:59;103248.81;;;2.82;80.58
65131;BME280;51709;54.912;8.316;2024-01-11T20:51:20;103255.13;;;2.79;80.76
65131;BME280;51709;54.912;8.316;2024-01-11T20:56:41;103263.13;;;2.81;80.54
65131;BME280;51709;54.912;8.316;2024-01-11T21:02:03;103267.72;;;2.77;80.80
65131;BME280;51709;54.912;8.316;2024-01-11T21:07:24;103259.66;;;2.77;80.56
65131;BME280;51709;54.912;8.316;2024-01-11T21:12:45;103269.56;;;2.77;80.56
65131;BME280;51709;54.912;8.316;2024-01-11T21:18:05;103262.41;;;2.76;80.64
65131;BME280;51709;54.912;8.316;2024-01-11T21:23:26;103264.19;;;2.77;80.44
65131;BME280;51709;54.912;8.316;2024-01-11T21:28:46;103273.19;;;2.74;80.31
65131;BME280;51709;54.912;8.316;2024-01-11T21:34:10;103266.88;;;2.75;80.36
65131;BME280;51709;54.912;8.316;2024-01-11T21:39:31;103271.28;;;2.78;80.48
65131;BME280;51709;54.912;8.316;2024-01-11T21:44:53;103265.97;;;2.76;80.27
65131;BME280;51709;54.912;8.316;2024-01-11T21:50:13;103270.41;;;2.77;80.19
65131;BME280;51709;54.912;8.316;2024-01-11T21:55:34;103264.31;;;2.72;80.10
65131;BME280;51709;54.912;8.316;2024-01-11T22:00:55;103272.53;;;2.68;80.27
65131;BME280;51709;54.912;8.316;2024-01-11T22:06:16;103263.81;;;2.60;80.04
65131;BME280;51709;54.912;8.316;2024-01-11T22:11:37;103270.25;;;2.54;80.13
65131;BME280;51709;54.912;8.316;2024-01-11T22:16:57;103267.03;;;2.43;80.02
65131;BME280;51709;54.912;8.316;2024-01-11T22:22:18;103269.63;;;2.46;80.09
65131;BME280;51709;54.912;8.316;2024-01-11T22:27:38;103256.94;;;2.51;80.15
65131;BME280;51709;54.912;8.316;2024-01-11T22:33:00;103264.78;;;2.59;79.95
65131;BME280;51709;54.912;8.316;2024-01-11T22:38:21;103258.47;;;2.60;79.99
65131;BME280;51709;54.912;8.316;2024-01-11T22:43:41;103249.69;;;2.55;80.07
65131;BME280;51709;54.912;8.316;2024-01-11T22:49:02;103255.09;;;2.53;80.10
65131;BME280;51709;54.912;8.316;2024-01-11T22:54:25;103253.28;;;2.54;80.02
65131;BME280;51709;54.912;8.316;2024-01-11T22:59:45;103258.63;;;2.54;80.17
65131;BME280;51709;54.912;8.316;2024-01-11T23:05:07;103255.03;;;2.55;80.06
65131;BME280;51709;54.912;8.316;2024-01-11T23:10:27;103261.38;;;2.52;80.07
65131;BME280;51709;54.912;8.316;2024-01-11T23:15:48;103247.78;;;2.58;79.83
65131;BME280;51709;54.912;8.316;2024-01-11T23:21:09;103247.91;;;2.54;80.17
65131;BME280;51709;54.912;8.316;2024-01-11T23:26:29;103254.09;;;2.56;80.42
65131;BME280;51709;54.912;8.316;2024-01-11T23:31:50;103255.94;;;2.55;80.13
65131;BME280;51709;54.912;8.316;2024-01-11T23:37:10;103252.53;;;2.49;80.24
65131;BME280;51709;54.912;8.316;2024-01-11T23:42:31;103252.78;;;2.41;80.28
65131;BME280;51709;54.912;8.316;2024-01-11T23:47:51;103259.34;;;2.31;80.76
65131;BME280;51709;54.912;8.316;2024-01-11T23:53:12;103254.84;;;2.33;80.78
65131;BME280;51709;54.912;8.316;2024-01-11T23:58:33;103248.41;;;2.39;80.88
